createdAt,value
2019-03-23T00:00:50.189Z,993.356
2019-03-23T00:02:50.243Z,993.367
2019-03-23T00:04:49.804Z,993.370
2019-03-23T00:06:50.144Z,993.361
2019-03-23T00:08:50.211Z,993.361
2019-03-23T00:10:50.415Z,993.346
2019-03-23T00:12:50.516Z,993.333
2019-03-23T00:14:49.615Z,993.342
2019-03-23T00:16:49.888Z,993.364
2019-03-23T00:18:49.891Z,993.364
2019-03-23T00:20:49.911Z,993.372
2019-03-23T00:22:50.034Z,993.358
2019-03-23T00:24:50.105Z,993.364
2019-03-23T00:26:50.287Z,993.347
2019-03-23T00:28:50.311Z,993.318
2019-03-23T00:30:50.398Z,993.297
2019-03-23T00:32:50.422Z,993.276
2019-03-23T00:34:49.916Z,993.251
2019-03-23T00:36:50.080Z,993.234
2019-03-23T00:38:50.128Z,993.194
2019-03-23T00:40:50.225Z,993.166
2019-03-23T00:42:50.252Z,993.147
2019-03-23T00:44:50.396Z,993.129
2019-03-23T00:46:49.868Z,993.130
2019-03-23T00:48:49.944Z,993.130
2019-03-23T00:50:50.063Z,993.135
2019-03-23T00:52:50.174Z,993.117
2019-03-23T00:54:50.234Z,993.076
2019-03-23T00:56:50.411Z,993.055
2019-03-23T00:58:50.443Z,993.045
2019-03-23T01:00:50.534Z,993.046
2019-03-23T01:02:49.715Z,993.048
2019-03-23T01:04:50.056Z,993.047
2019-03-23T01:06:52.685Z,993.044
2019-03-23T01:08:49.803Z,993.023
2019-03-23T01:10:49.931Z,993.011
2019-03-23T01:12:50.070Z,993.003
2019-03-23T01:14:50.121Z,993.005
2019-03-23T01:16:50.424Z,992.993
2019-03-23T01:18:50.523Z,992.998
2019-03-23T01:20:50.296Z,992.993
2019-03-23T01:22:50.457Z,992.976
2019-03-23T01:24:50.461Z,992.975
2019-03-23T01:26:49.852Z,992.965
2019-03-23T01:28:50.016Z,992.970
2019-03-23T01:30:50.117Z,992.954
2019-03-23T01:32:50.293Z,992.949
2019-03-23T01:34:49.639Z,992.908
2019-03-23T01:36:49.929Z,992.879
2019-03-23T01:38:50.009Z,992.859
2019-03-23T01:40:50.096Z,992.862
2019-03-23T01:42:50.160Z,992.854
2019-03-23T01:44:50.271Z,992.873
2019-03-23T01:46:49.642Z,992.881
2019-03-23T01:48:49.761Z,992.887
2019-03-23T01:50:49.860Z,992.893
2019-03-23T01:52:49.982Z,992.895
2019-03-23T01:54:50.010Z,992.896
2019-03-23T01:56:50.118Z,992.901
2019-03-23T01:58:50.213Z,992.906
2019-03-23T02:00:50.244Z,992.896
2019-03-23T02:02:50.401Z,992.871
2019-03-23T02:04:49.800Z,992.871
2019-03-23T02:06:50.057Z,992.863
2019-03-23T02:08:50.138Z,992.865
2019-03-23T02:10:50.204Z,992.876
2019-03-23T02:12:50.414Z,992.881
2019-03-23T02:14:50.544Z,992.879
2019-03-23T02:16:49.859Z,992.889
2019-03-23T02:18:49.905Z,992.934
2019-03-23T02:20:50.040Z,992.965
2019-03-23T02:22:50.241Z,992.991
2019-03-23T02:24:50.510Z,992.973
2019-03-23T02:26:49.839Z,992.945
2019-03-23T02:28:50.005Z,992.949
2019-03-23T02:30:50.167Z,992.962
2019-03-23T02:32:50.308Z,992.965
2019-03-23T02:34:49.747Z,992.976
2019-03-23T02:36:50.021Z,992.975
2019-03-23T02:38:50.238Z,992.977
2019-03-23T02:40:50.282Z,992.997
2019-03-23T02:42:50.465Z,993.004
2019-03-23T02:44:50.529Z,992.994
2019-03-23T02:46:49.846Z,992.996
2019-03-23T02:48:49.922Z,992.988
2019-03-23T02:50:50.008Z,992.961
2019-03-23T02:52:50.194Z,992.944
2019-03-23T02:54:50.268Z,992.935
2019-03-23T02:56:50.574Z,992.917
2019-03-23T02:58:50.601Z,992.905
2019-03-23T03:00:49.725Z,992.884
2019-03-23T03:02:49.856Z,992.910
2019-03-23T03:04:50.352Z,992.916
2019-03-23T03:06:50.579Z,992.934
2019-03-23T03:08:50.487Z,992.934
2019-03-23T03:10:49.690Z,992.911
2019-03-23T03:12:49.729Z,992.895
2019-03-23T03:14:49.804Z,992.886
2019-03-23T03:16:50.091Z,992.879
2019-03-23T03:18:50.169Z,992.873
2019-03-23T03:20:50.259Z,992.871
2019-03-23T03:22:50.359Z,992.891
2019-03-23T03:24:50.404Z,992.895
2019-03-23T03:26:49.629Z,992.905
2019-03-23T03:28:49.683Z,992.907
2019-03-23T03:30:49.796Z,992.878
2019-03-23T03:32:49.919Z,992.851
2019-03-23T03:34:50.432Z,992.842
2019-03-23T03:36:49.697Z,992.833
2019-03-23T03:38:49.840Z,992.816
2019-03-23T03:40:49.913Z,992.806
2019-03-23T03:42:50.066Z,992.788
2019-03-23T03:44:50.244Z,992.771
2019-03-23T03:46:50.550Z,992.752
2019-03-23T03:48:50.532Z,992.708
2019-03-23T03:50:50.609Z,992.698
2019-03-23T03:52:49.769Z,992.660
2019-03-23T03:54:49.975Z,992.656
2019-03-23T03:56:50.234Z,992.656
2019-03-23T03:58:50.250Z,992.667
2019-03-23T04:00:50.539Z,992.651
2019-03-23T04:02:49.703Z,992.630
2019-03-23T04:04:50.182Z,992.593
2019-03-23T04:06:50.427Z,992.562
2019-03-23T04:08:50.464Z,992.574
2019-03-23T04:10:50.555Z,992.570
2019-03-23T04:12:49.661Z,992.568
2019-03-23T04:14:49.794Z,992.566
2019-03-23T04:16:50.028Z,992.578
2019-03-23T04:18:50.102Z,992.579
2019-03-23T04:20:50.221Z,992.599
2019-03-23T04:22:50.406Z,992.607
2019-03-23T04:24:50.514Z,992.611
2019-03-23T04:26:49.658Z,992.619
2019-03-23T04:28:49.771Z,992.619
2019-03-23T04:30:49.979Z,992.626
2019-03-23T04:32:50.105Z,992.648
2019-03-23T04:34:50.435Z,992.663
2019-03-23T04:36:49.721Z,992.665
2019-03-23T04:38:49.763Z,992.693
2019-03-23T04:40:49.855Z,992.716
2019-03-23T04:42:49.921Z,992.741
2019-03-23T04:44:50.043Z,992.753
2019-03-23T04:46:50.234Z,992.763
2019-03-23T04:48:50.263Z,992.760
2019-03-23T04:50:50.387Z,992.760
2019-03-23T04:52:50.376Z,992.777
2019-03-23T04:54:50.355Z,992.789
2019-03-23T04:56:50.526Z,992.817
2019-03-23T04:58:50.557Z,992.832
2019-03-23T05:00:49.643Z,992.864
2019-03-23T05:02:49.644Z,992.867
2019-03-23T05:04:50.176Z,992.863
2019-03-23T05:06:50.458Z,992.865
2019-03-23T05:08:49.654Z,992.894
2019-03-23T05:10:49.725Z,992.899
2019-03-23T05:12:49.709Z,992.906
2019-03-23T05:14:49.846Z,992.921
2019-03-23T05:16:49.992Z,992.937
2019-03-23T05:18:50.144Z,992.935
2019-03-23T05:20:50.195Z,992.932
2019-03-23T05:22:50.264Z,992.950
2019-03-23T05:24:50.396Z,992.964
2019-03-23T05:26:50.230Z,992.978
2019-03-23T05:28:50.392Z,993.014
2019-03-23T05:30:50.435Z,993.022
2019-03-23T05:32:50.500Z,993.022
2019-03-23T05:34:49.896Z,993.078
2019-03-23T05:36:50.096Z,993.092
2019-03-23T05:38:50.292Z,993.107
2019-03-23T05:40:50.298Z,993.111
2019-03-23T05:42:50.331Z,993.109
2019-03-23T05:44:50.457Z,993.112
2019-03-23T05:46:49.697Z,993.123
2019-03-23T05:48:49.784Z,993.156
2019-03-23T05:50:49.787Z,993.182
2019-03-23T05:52:49.962Z,993.210
2019-03-23T05:54:50.003Z,993.230
2019-03-23T05:56:50.231Z,993.236
2019-03-23T05:58:50.281Z,993.246
2019-03-23T06:00:50.331Z,993.262
2019-03-23T06:02:50.346Z,993.290
2019-03-23T06:04:49.653Z,993.308
2019-03-23T06:06:49.923Z,993.299
2019-03-23T06:08:55.719Z,993.305
2019-03-23T06:10:49.958Z,993.310
2019-03-23T06:12:50.047Z,993.332
2019-03-23T06:14:50.147Z,993.327
2019-03-23T06:16:50.449Z,993.332
2019-03-23T06:18:50.480Z,993.332
2019-03-23T06:20:50.572Z,993.270
2019-03-23T06:22:49.693Z,993.251
2019-03-23T06:24:49.827Z,993.227
2019-03-23T06:26:50.116Z,993.227
2019-03-23T06:28:50.211Z,993.201
2019-03-23T06:30:50.199Z,993.182
2019-03-23T06:32:50.367Z,993.180
2019-03-23T06:34:49.782Z,993.177
2019-03-23T06:36:49.672Z,993.182
2019-03-23T06:38:49.768Z,993.181
2019-03-23T06:40:49.942Z,993.187
2019-03-23T06:43:00.218Z,993.206
2019-03-23T06:44:50.298Z,993.225
2019-03-23T06:46:50.420Z,993.205
2019-03-23T06:48:50.558Z,993.186
2019-03-23T06:50:49.619Z,993.167
2019-03-23T06:52:49.706Z,993.128
2019-03-23T06:54:49.759Z,993.101
2019-03-23T06:56:49.888Z,993.110
2019-03-23T06:58:49.998Z,993.113
2019-03-23T07:00:50.076Z,993.135
2019-03-23T07:02:50.106Z,993.135
2019-03-23T07:04:50.509Z,993.130
2019-03-23T07:06:49.749Z,993.140
2019-03-23T07:08:49.890Z,993.141
2019-03-23T07:10:50.013Z,993.139
2019-03-23T07:12:50.180Z,993.083
2019-03-23T07:14:50.216Z,993.083
2019-03-23T07:16:50.388Z,993.061
2019-03-23T07:18:50.443Z,993.062
2019-03-23T07:20:50.472Z,993.071
2019-03-23T07:22:50.478Z,993.067
2019-03-23T07:24:50.514Z,993.055
2019-03-23T07:26:50.601Z,993.066
2019-03-23T07:28:49.658Z,993.077
2019-03-23T07:30:49.733Z,993.082
2019-03-23T07:32:49.998Z,993.069
2019-03-23T07:34:50.503Z,993.043
2019-03-23T07:36:49.812Z,993.046
2019-03-23T07:38:49.859Z,993.068
2019-03-23T07:40:49.876Z,993.074
2019-03-23T07:42:49.908Z,993.062
2019-03-23T07:44:50.027Z,993.083
2019-03-23T07:46:50.233Z,993.091
2019-03-23T07:48:50.287Z,993.085
2019-03-23T07:50:50.475Z,993.068
2019-03-23T07:52:50.555Z,993.029
2019-03-23T07:54:49.620Z,993.028
2019-03-23T07:56:49.873Z,993.011
2019-03-23T07:58:49.905Z,992.994
2019-03-23T08:00:49.979Z,992.993
2019-03-23T08:02:50.140Z,992.965
2019-03-23T08:04:50.456Z,992.956
2019-03-23T08:06:50.522Z,992.961
2019-03-23T08:08:50.526Z,992.952
2019-03-23T08:10:49.634Z,992.932
2019-03-23T08:12:49.743Z,992.937
2019-03-23T08:14:49.761Z,992.937
2019-03-23T08:16:49.922Z,992.932
2019-03-23T08:18:49.985Z,992.944
2019-03-23T08:20:50.156Z,992.948
2019-03-23T08:22:50.231Z,992.970
2019-03-23T08:24:50.313Z,992.983
2019-03-23T08:26:50.556Z,993.007
2019-03-23T08:28:49.757Z,993.028
2019-03-23T08:30:49.790Z,993.001
2019-03-23T08:32:49.966Z,992.998
2019-03-23T08:34:50.412Z,992.996
2019-03-23T08:36:49.647Z,992.982
2019-03-23T08:38:51.939Z,992.971
2019-03-23T08:40:49.957Z,992.954
2019-03-23T08:42:49.995Z,992.938
2019-03-23T08:44:50.151Z,992.952
2019-03-23T08:46:50.311Z,992.961
2019-03-23T08:48:50.366Z,992.977
2019-03-23T08:50:50.533Z,992.988
2019-03-23T08:52:49.625Z,992.985
2019-03-23T08:54:49.725Z,992.982
2019-03-23T08:56:50.024Z,992.955
2019-03-23T08:58:50.166Z,992.925
2019-03-23T09:00:50.253Z,992.912
2019-03-23T09:02:50.305Z,992.913
2019-03-23T09:04:49.838Z,992.913
2019-03-23T09:06:50.000Z,992.886
2019-03-23T09:08:50.024Z,992.882
2019-03-23T09:10:50.087Z,992.869
2019-03-23T09:12:50.230Z,992.857
2019-03-23T09:14:50.251Z,992.852
2019-03-23T09:16:50.462Z,992.850
2019-03-23T09:18:50.585Z,992.835
2019-03-23T09:20:49.675Z,992.829
2019-03-23T09:22:49.691Z,992.827
2019-03-23T09:24:49.815Z,992.826
2019-03-23T09:26:50.077Z,992.807
2019-03-23T09:28:50.175Z,992.800
2019-03-23T09:30:50.280Z,992.789
2019-03-23T09:32:50.299Z,992.801
2019-03-23T09:34:49.759Z,992.791
2019-03-23T09:36:50.016Z,992.779
2019-03-23T09:38:50.079Z,992.776
2019-03-23T09:40:50.195Z,992.781
2019-03-23T09:42:50.312Z,992.765
2019-03-23T09:44:50.391Z,992.774
2019-03-23T09:46:50.547Z,992.760
2019-03-23T09:48:50.580Z,992.767
2019-03-23T09:50:49.705Z,992.752
2019-03-23T09:52:49.850Z,992.766
2019-03-23T09:54:50.071Z,992.779
2019-03-23T09:56:50.290Z,992.762
2019-03-23T09:58:50.532Z,992.781
2019-03-23T10:00:50.592Z,992.768
2019-03-23T10:02:49.723Z,992.739
2019-03-23T10:04:50.263Z,992.728
2019-03-23T10:06:50.433Z,992.705
2019-03-23T10:08:50.514Z,992.692
2019-03-23T10:10:50.594Z,992.659
2019-03-23T10:12:49.696Z,992.647
2019-03-23T10:14:49.802Z,992.670
2019-03-23T10:16:50.154Z,992.676
2019-03-23T10:18:50.316Z,992.686
2019-03-23T10:20:50.338Z,992.704
2019-03-23T10:22:50.471Z,992.714
2019-03-23T10:24:49.596Z,992.709
2019-03-23T10:26:52.499Z,992.683
2019-03-23T10:28:49.629Z,992.670
2019-03-23T10:30:49.717Z,992.664
2019-03-23T10:32:49.873Z,992.645
2019-03-23T10:34:50.326Z,992.602
2019-03-23T10:36:50.555Z,992.592
2019-03-23T10:38:49.683Z,992.574
2019-03-23T10:40:49.757Z,992.551
2019-03-23T10:42:49.874Z,992.556
2019-03-23T10:44:50.019Z,992.542
2019-03-23T10:46:50.277Z,992.539
2019-03-23T10:48:50.401Z,992.557
2019-03-23T10:50:50.507Z,992.570
2019-03-23T10:52:49.668Z,992.549
2019-03-23T10:54:49.715Z,992.519
2019-03-23T10:56:49.919Z,992.532
2019-03-23T10:58:50.095Z,992.511
2019-03-23T11:00:50.115Z,992.511
2019-03-23T11:02:50.206Z,992.457
2019-03-23T11:04:49.653Z,992.442
2019-03-23T11:06:49.851Z,992.426
2019-03-23T11:08:49.983Z,992.399
2019-03-23T11:10:50.059Z,992.376
2019-03-23T11:12:50.121Z,992.361
2019-03-23T11:14:50.283Z,992.358
2019-03-23T11:16:50.430Z,992.352
2019-03-23T11:18:50.409Z,992.315
2019-03-23T11:20:50.462Z,992.294
2019-03-23T11:22:50.561Z,992.263
2019-03-23T11:24:49.650Z,992.246
2019-03-23T11:26:49.879Z,992.254
2019-03-23T11:28:50.032Z,992.219
2019-03-23T11:30:50.102Z,992.208
2019-03-23T11:32:50.248Z,992.208
2019-03-23T11:34:49.726Z,992.214
2019-03-23T11:36:49.919Z,992.252
2019-03-23T11:38:50.042Z,992.259
2019-03-23T11:40:55.547Z,992.242
2019-03-23T11:42:50.707Z,992.196
2019-03-23T11:44:50.016Z,992.165
2019-03-23T11:46:50.490Z,992.111
2019-03-23T11:48:50.569Z,992.102
2019-03-23T11:50:49.773Z,992.105
2019-03-23T11:52:49.919Z,992.099
2019-03-23T11:54:49.962Z,992.101
2019-03-23T11:56:50.133Z,992.087
2019-03-23T11:58:50.285Z,992.076
2019-03-23T12:00:50.330Z,992.057
2019-03-23T12:02:50.401Z,992.035
2019-03-23T12:04:49.942Z,992.057
2019-03-23T12:06:50.268Z,992.046
2019-03-23T12:08:50.328Z,992.044
2019-03-23T12:10:50.407Z,992.044
2019-03-23T12:12:50.362Z,991.962
2019-03-23T12:14:50.344Z,991.943
2019-03-23T12:16:50.509Z,991.910
2019-03-23T12:18:49.677Z,991.891
2019-03-23T12:20:49.749Z,991.903
2019-03-23T12:22:49.814Z,991.892
2019-03-23T12:24:49.921Z,991.899
2019-03-23T12:26:50.055Z,991.873
2019-03-23T12:28:50.126Z,991.836
2019-03-23T12:30:50.252Z,991.841
2019-03-23T12:32:50.251Z,991.840
2019-03-23T12:34:49.746Z,991.822
2019-03-23T12:36:49.901Z,991.793
2019-03-23T12:38:49.956Z,991.785
2019-03-23T12:40:50.023Z,991.719
2019-03-23T12:42:50.109Z,991.729
2019-03-23T12:44:50.212Z,991.692
2019-03-23T12:46:50.392Z,991.681
2019-03-23T12:48:50.543Z,991.698
2019-03-23T12:50:50.572Z,991.718
2019-03-23T12:52:49.791Z,991.661
2019-03-23T12:54:49.834Z,991.651
2019-03-23T12:56:49.969Z,991.619
2019-03-23T12:58:50.099Z,991.580
2019-03-23T13:00:50.258Z,991.557
2019-03-23T13:02:50.316Z,991.530
2019-03-23T13:04:49.602Z,991.520
2019-03-23T13:06:49.979Z,991.513
2019-03-23T13:08:50.076Z,991.478
2019-03-23T13:10:50.125Z,991.437
2019-03-23T13:12:50.188Z,991.428
2019-03-23T13:14:50.256Z,991.401
2019-03-23T13:16:49.663Z,991.389
2019-03-23T13:18:49.718Z,991.390
2019-03-23T13:20:49.889Z,991.399
2019-03-23T13:22:49.907Z,991.380
2019-03-23T13:24:49.942Z,991.353
2019-03-23T13:26:50.159Z,991.312
2019-03-23T13:28:50.307Z,991.271
2019-03-23T13:30:50.408Z,991.240
2019-03-23T13:32:50.505Z,991.263
2019-03-23T13:34:50.048Z,991.263
2019-03-23T13:36:50.202Z,991.311
2019-03-23T13:38:50.190Z,991.280
2019-03-23T13:40:50.173Z,991.270
2019-03-23T13:42:50.338Z,991.202
2019-03-23T13:44:50.387Z,991.192
2019-03-23T13:46:50.614Z,991.182
2019-03-23T13:48:49.705Z,991.164
2019-03-23T13:50:49.821Z,991.127
2019-03-23T13:52:49.995Z,991.091
2019-03-23T13:54:50.023Z,991.046
2019-03-23T13:56:50.207Z,991.008
2019-03-23T13:58:50.292Z,990.985
2019-03-23T14:00:50.346Z,990.961
2019-03-23T14:02:50.475Z,990.941
2019-03-23T14:04:50.582Z,990.942
2019-03-23T14:06:49.862Z,990.918
2019-03-23T14:08:49.953Z,990.885
2019-03-23T14:10:50.129Z,990.849
2019-03-23T14:12:50.224Z,990.866
2019-03-23T14:14:50.325Z,990.844
2019-03-23T14:16:50.601Z,990.837
2019-03-23T14:18:50.578Z,990.825
2019-03-23T14:20:49.759Z,990.828
2019-03-23T14:22:49.806Z,990.787
2019-03-23T14:24:49.887Z,990.747
2019-03-23T14:26:50.124Z,990.715
2019-03-23T14:28:50.178Z,990.679
2019-03-23T14:30:50.251Z,990.687
2019-03-23T14:32:50.385Z,990.693
2019-03-23T14:34:49.784Z,990.702
2019-03-23T14:36:50.102Z,990.692
2019-03-23T14:38:50.081Z,990.653
2019-03-23T14:40:50.139Z,990.653
2019-03-23T14:42:50.188Z,990.640
2019-03-23T14:44:50.273Z,990.640
2019-03-23T14:46:50.414Z,990.650
2019-03-23T14:48:50.465Z,990.653
2019-03-23T14:50:50.451Z,990.641
2019-03-23T14:52:50.482Z,990.636
2019-03-23T14:54:50.541Z,990.657
2019-03-23T14:56:49.686Z,990.667
2019-03-23T14:58:49.812Z,990.678
2019-03-23T15:00:49.804Z,990.702
2019-03-23T15:02:49.857Z,990.694
2019-03-23T15:04:50.213Z,990.675
2019-03-23T15:06:50.453Z,990.699
2019-03-23T15:08:50.451Z,990.710
2019-03-23T15:10:50.412Z,990.679
2019-03-23T15:12:50.438Z,990.686
2019-03-23T15:14:50.531Z,990.693
2019-03-23T15:16:49.630Z,990.677
2019-03-23T15:18:49.813Z,990.664
2019-03-23T15:20:49.862Z,990.640
2019-03-23T15:22:49.921Z,990.640
2019-03-23T15:24:50.025Z,990.627
2019-03-23T15:26:50.205Z,990.633
2019-03-23T15:28:50.330Z,990.609
2019-03-23T15:30:51.114Z,990.603
2019-03-23T15:32:50.302Z,990.558
2019-03-23T15:34:49.685Z,990.576
2019-03-23T15:36:49.878Z,990.567
2019-03-23T15:38:50.017Z,990.577
2019-03-23T15:40:50.087Z,990.583
2019-03-23T15:42:50.222Z,990.604
2019-03-23T15:44:50.271Z,990.611
2019-03-23T15:46:50.462Z,990.631
2019-03-23T15:48:50.496Z,990.606
2019-03-23T15:50:50.523Z,990.604
2019-03-23T15:52:50.553Z,990.600
2019-03-23T15:54:50.528Z,990.595
2019-03-23T15:56:49.727Z,990.640
2019-03-23T15:58:49.838Z,990.642
2019-03-23T16:00:49.832Z,990.668
2019-03-23T16:02:49.876Z,990.686
2019-03-23T16:04:50.303Z,990.678
2019-03-23T16:06:50.442Z,990.654
2019-03-23T16:08:50.507Z,990.653
2019-03-23T16:10:50.592Z,990.658
2019-03-23T16:12:49.617Z,990.674
2019-03-23T16:14:49.652Z,990.688
2019-03-23T16:16:49.989Z,990.683
2019-03-23T16:18:50.148Z,990.676
2019-03-23T16:20:50.308Z,990.665
2019-03-23T16:22:50.311Z,990.663
2019-03-23T16:24:50.389Z,990.667
2019-03-23T16:26:49.614Z,990.663
2019-03-23T16:28:49.635Z,990.660
2019-03-23T16:30:49.702Z,990.664
2019-03-23T16:32:49.765Z,990.678
2019-03-23T16:34:50.271Z,990.739
2019-03-23T16:36:50.529Z,990.769
2019-03-23T16:38:50.539Z,990.773
2019-03-23T16:40:50.570Z,990.770
2019-03-23T16:42:49.711Z,990.765
2019-03-23T16:44:49.731Z,990.749
2019-03-23T16:46:50.043Z,990.750
2019-03-23T16:48:50.092Z,990.744
2019-03-23T16:52:50.267Z,990.739
2019-03-23T16:54:50.273Z,990.735
2019-03-23T16:56:50.514Z,990.727
2019-03-23T16:58:50.759Z,990.723
2019-03-23T17:00:50.188Z,990.723
2019-03-23T17:02:50.354Z,990.729
2019-03-23T17:04:49.659Z,990.727
2019-03-23T17:06:49.916Z,990.738
2019-03-23T17:08:50.029Z,990.740
2019-03-23T17:10:50.096Z,990.732
2019-03-23T17:12:55.826Z,990.719
2019-03-23T17:14:49.864Z,990.715
2019-03-23T17:16:50.128Z,990.715
2019-03-23T17:18:50.180Z,990.717
2019-03-23T17:20:50.267Z,990.730
2019-03-23T17:22:50.386Z,990.735
2019-03-23T17:24:50.428Z,990.760
2019-03-23T17:26:50.603Z,990.766
2019-03-23T17:28:49.682Z,990.752
2019-03-23T17:30:49.733Z,990.781
2019-03-23T17:32:49.998Z,990.778
2019-03-23T17:34:50.369Z,990.810
2019-03-23T17:36:50.635Z,990.821
2019-03-23T17:38:49.672Z,990.846
2019-03-23T17:40:49.842Z,990.871
2019-03-23T17:42:49.893Z,990.888
2019-03-23T17:44:49.956Z,990.932
2019-03-23T17:46:50.082Z,990.991
2019-03-23T17:48:50.223Z,991.024
2019-03-23T17:50:50.192Z,991.052
2019-03-23T17:52:50.260Z,991.072
2019-03-23T17:54:50.383Z,991.089
2019-03-23T17:56:50.552Z,991.106
2019-03-23T17:58:49.635Z,991.115
2019-03-23T18:00:49.752Z,991.121
2019-03-23T18:02:49.862Z,991.158
2019-03-23T18:04:50.349Z,991.176
2019-03-23T18:06:50.562Z,991.192
2019-03-23T18:08:49.801Z,991.185
2019-03-23T18:10:49.925Z,991.201
2019-03-23T18:12:50.023Z,991.241
2019-03-23T18:14:50.207Z,991.252
2019-03-23T18:16:50.299Z,991.264
2019-03-23T18:18:50.351Z,991.281
2019-03-23T18:20:50.390Z,991.292
2019-03-23T18:22:50.573Z,991.302
2019-03-23T18:24:49.639Z,991.345
2019-03-23T18:26:49.729Z,991.400
2019-03-23T18:28:49.747Z,991.418
2019-03-23T18:30:49.863Z,991.436
2019-03-23T18:32:49.966Z,991.452
2019-03-23T18:34:50.316Z,991.488
2019-03-23T18:36:50.525Z,991.488
2019-03-23T18:38:50.488Z,991.504
2019-03-23T18:40:50.611Z,991.499
2019-03-23T18:42:49.691Z,991.501
2019-03-23T18:44:49.765Z,991.502
2019-03-23T18:46:50.079Z,991.507
2019-03-23T18:48:50.122Z,991.507
2019-03-23T18:50:50.253Z,991.514
2019-03-23T18:52:50.314Z,991.507
2019-03-23T18:54:50.373Z,991.514
2019-03-23T18:56:50.550Z,991.536
2019-03-23T18:58:49.624Z,991.554
2019-03-23T19:00:49.787Z,991.606
2019-03-23T19:02:49.916Z,991.621
2019-03-23T19:04:50.352Z,991.632
2019-03-23T19:06:49.671Z,991.633
2019-03-23T19:08:49.664Z,991.636
2019-03-23T19:10:49.810Z,991.639
2019-03-23T19:12:49.774Z,991.629
2019-03-23T19:14:49.895Z,991.637
2019-03-23T19:16:50.146Z,991.654
2019-03-23T19:18:50.202Z,991.690
2019-03-23T19:20:50.293Z,991.710
2019-03-23T19:22:50.423Z,991.724
2019-03-23T19:24:50.537Z,991.710
2019-03-23T19:26:49.852Z,991.701
2019-03-23T19:28:49.928Z,991.697
2019-03-23T19:30:49.974Z,991.668
2019-03-23T19:32:50.106Z,991.648
2019-03-23T19:34:50.562Z,991.646
2019-03-23T19:36:49.776Z,991.643
2019-03-23T19:38:50.003Z,991.654
2019-03-23T19:40:50.074Z,991.679
2019-03-23T19:42:50.153Z,991.698
2019-03-23T19:44:50.255Z,991.701
2019-03-23T19:46:52.645Z,991.723
2019-03-23T19:48:49.658Z,991.755
2019-03-23T19:50:49.884Z,991.765
2019-03-23T19:52:49.972Z,991.776
2019-03-23T19:54:50.102Z,991.796
2019-03-23T19:56:50.361Z,991.822
2019-03-23T19:58:50.434Z,991.836
2019-03-23T20:00:50.518Z,991.836
2019-03-23T20:02:50.580Z,991.872
2019-03-23T20:04:50.029Z,991.879
2019-03-23T20:06:50.316Z,991.884
2019-03-23T20:08:50.356Z,991.906
2019-03-23T20:10:50.455Z,991.935
2019-03-23T20:12:50.554Z,991.994
2019-03-23T20:14:49.669Z,992.026
2019-03-23T20:16:49.792Z,992.297
2019-03-23T20:18:49.855Z,992.300
2019-03-23T20:20:50.062Z,992.288
2019-03-23T20:22:50.216Z,992.249
2019-03-23T20:24:50.422Z,992.228
2019-03-23T20:26:50.575Z,992.239
2019-03-23T20:28:49.639Z,992.228
2019-03-23T20:30:49.696Z,992.202
2019-03-23T20:32:49.813Z,992.168
2019-03-23T20:34:50.227Z,992.143
2019-03-23T20:36:50.369Z,992.122
2019-03-23T20:38:50.387Z,992.123
2019-03-23T20:40:50.436Z,992.122
2019-03-23T20:42:50.533Z,992.112
2019-03-23T20:44:50.616Z,992.112
2019-03-23T20:46:49.842Z,992.076
2019-03-23T20:48:49.924Z,992.077
2019-03-23T20:50:50.025Z,992.099
2019-03-23T20:52:50.142Z,992.097
2019-03-23T20:54:50.244Z,992.102
2019-03-23T20:56:50.487Z,992.077
2019-03-23T20:58:50.577Z,992.086
2019-03-23T21:00:49.648Z,992.077
2019-03-23T21:02:49.706Z,992.043
2019-03-23T21:04:50.260Z,992.036
2019-03-23T21:06:50.497Z,992.037
2019-03-23T21:08:50.598Z,992.037
2019-03-23T21:10:49.712Z,992.028
2019-03-23T21:12:49.821Z,992.019
2019-03-23T21:14:49.950Z,992.009
2019-03-23T21:16:50.241Z,992.016
2019-03-23T21:18:50.378Z,992.044
2019-03-23T21:20:50.483Z,992.055
2019-03-23T21:22:50.556Z,992.064
2019-03-23T21:24:49.622Z,992.088
2019-03-23T21:26:49.854Z,992.116
2019-03-23T21:28:49.929Z,992.134
2019-03-23T21:30:50.013Z,992.136
2019-03-23T21:32:50.052Z,992.157
2019-03-23T21:34:50.465Z,992.115
2019-03-23T21:36:49.710Z,992.102
2019-03-23T21:38:49.716Z,992.113
2019-03-23T21:40:49.826Z,992.107
2019-03-23T21:42:49.970Z,992.080
2019-03-23T21:44:50.130Z,992.080
2019-03-23T21:46:50.355Z,992.021
2019-03-23T21:48:50.464Z,992.014
2019-03-23T21:50:50.562Z,992.023
2019-03-23T21:52:49.625Z,992.007
2019-03-23T21:54:49.758Z,992.007
2019-03-23T21:56:49.883Z,992.046
2019-03-23T21:58:49.991Z,992.071
2019-03-23T22:00:50.132Z,992.123
2019-03-23T22:02:50.165Z,992.139
2019-03-23T22:04:49.698Z,992.160
2019-03-23T22:06:49.888Z,992.120
2019-03-23T22:08:49.987Z,992.111
2019-03-23T22:10:50.139Z,992.087
2019-03-23T22:12:50.224Z,992.066
2019-03-23T22:14:50.321Z,992.054
2019-03-23T22:16:50.522Z,992.079
2019-03-23T22:18:50.547Z,992.112
2019-03-23T22:20:50.589Z,992.141
2019-03-23T22:22:50.545Z,992.163
2019-03-23T22:24:49.687Z,992.165
2019-03-23T22:26:49.894Z,992.167
2019-03-23T22:28:50.009Z,992.195
2019-03-23T22:30:50.104Z,992.220
2019-03-23T22:32:50.137Z,992.237
2019-03-23T22:34:49.715Z,992.254
2019-03-23T22:36:49.845Z,992.218
2019-03-23T22:38:49.973Z,992.208
2019-03-23T22:40:50.073Z,992.211
2019-03-23T22:42:50.107Z,992.196
2019-03-23T22:44:53.080Z,992.174
2019-03-23T22:46:50.288Z,992.121
2019-03-23T22:48:50.300Z,992.081
2019-03-23T22:50:50.449Z,992.081
2019-03-23T22:52:50.441Z,992.075
2019-03-23T22:54:50.510Z,992.088
2019-03-23T22:56:49.838Z,992.046
2019-03-23T22:58:49.922Z,992.046
2019-03-23T23:00:50.009Z,992.044
2019-03-23T23:02:50.155Z,992.037
2019-03-23T23:04:49.631Z,992.041
2019-03-23T23:06:49.854Z,992.030
2019-03-23T23:08:49.957Z,992.010
2019-03-23T23:10:50.156Z,991.998
2019-03-23T23:12:50.203Z,992.019
2019-03-23T23:15:04.498Z,992.015
2019-03-23T23:16:50.552Z,991.999
2019-03-23T23:18:49.601Z,991.972
2019-03-23T23:20:49.731Z,991.949
2019-03-23T23:22:49.817Z,991.940
2019-03-23T23:24:49.936Z,991.912
2019-03-23T23:26:50.208Z,991.891
2019-03-23T23:28:50.260Z,991.840
2019-03-23T23:30:50.304Z,991.839
2019-03-23T23:32:50.408Z,991.851
2019-03-23T23:34:49.810Z,991.842
2019-03-23T23:36:50.131Z,991.834
2019-03-23T23:38:52.818Z,991.808
2019-03-23T23:40:49.898Z,991.789
2019-03-23T23:42:50.003Z,991.792
2019-03-23T23:44:50.088Z,991.817
2019-03-23T23:46:50.395Z,991.838
2019-03-23T23:48:51.867Z,991.834
2019-03-23T23:50:50.071Z,991.847
2019-03-23T23:52:50.173Z,991.843
2019-03-23T23:54:50.176Z,991.832
2019-03-23T23:56:50.698Z,991.832
2019-03-23T23:58:50.028Z,991.824
